North Bangor, New York
Current Conditions -  °F | °C
As of 12:53 PM on Saturday 27 Dec 2014 (Local Time) from KMSS Reporting Station
Overcast Overcast  
Wind Chill: 39°   Ceiling: 4900
Heat Index: 43°   Visibility: 10mi
Dew Point: 34°   Wind: 6mph
Humidity: 71%   Direction: 220°SW
Pressure: 30.09"   Gusts: NA
Location:  44.84°N, 74.4°W
Report Text: KMSS 271753Z AUTO 22005KT 10SM OVC049 06/01 A3009 RMK AO2 SLP193 T00610011 10061 20028 58029
Loading
Personal Weather Stations






























Interactive Weather Map New forecast layout! Learn more

10-Day Weather Forecast

Advertisements
Track Severe Weather on mobile